sensor_id;sensor_type;location;lat;lon;timestamp;P1;durP1;ratioP1;P2;durP2;ratioP2
68854;SDS011;55859;55.710;12.464;2022-08-14T00:01:53;3.92;;;2.92;;
68854;SDS011;55859;55.710;12.464;2022-08-14T00:04:18;3.30;;;3.10;;
68854;SDS011;55859;55.710;12.464;2022-08-14T00:06:43;4.40;;;3.47;;
68854;SDS011;55859;55.710;12.464;2022-08-14T00:09:09;3.90;;;3.20;;
68854;SDS011;55859;55.710;12.464;2022-08-14T00:11:34;4.20;;;3.40;;
68854;SDS011;55859;55.710;12.464;2022-08-14T00:14:00;4.65;;;4.25;;
68854;SDS011;55859;55.710;12.464;2022-08-14T00:16:26;4.30;;;3.92;;
68854;SDS011;55859;55.710;12.464;2022-08-14T00:18:51;6.47;;;4.32;;
68854;SDS011;55859;55.710;12.464;2022-08-14T00:21:17;5.30;;;4.80;;
68854;SDS011;55859;55.710;12.464;2022-08-14T00:23:42;4.70;;;4.30;;
68854;SDS011;55859;55.710;12.464;2022-08-14T00:26:08;4.10;;;3.90;;
68854;SDS011;55859;55.710;12.464;2022-08-14T00:28:33;5.03;;;4.47;;
68854;SDS011;55859;55.710;12.464;2022-08-14T00:30:59;6.78;;;4.18;;
68854;SDS011;55859;55.710;12.464;2022-08-14T00:33:26;4.72;;;4.28;;
68854;SDS011;55859;55.710;12.464;2022-08-14T00:35:52;5.70;;;4.55;;
68854;SDS011;55859;55.710;12.464;2022-08-14T00:38:18;6.40;;;4.45;;
68854;SDS011;55859;55.710;12.464;2022-08-14T00:40:44;4.47;;;4.18;;
68854;SDS011;55859;55.710;12.464;2022-08-14T00:43:10;4.50;;;4.20;;
68854;SDS011;55859;55.710;12.464;2022-08-14T00:45:36;3.97;;;3.70;;
68854;SDS011;55859;55.710;12.464;2022-08-14T00:48:02;4.65;;;4.30;;
68854;SDS011;55859;55.710;12.464;2022-08-14T00:50:28;5.03;;;4.60;;
68854;SDS011;55859;55.710;12.464;2022-08-14T00:52:55;4.55;;;4.05;;
68854;SDS011;55859;55.710;12.464;2022-08-14T00:55:25;5.07;;;4.55;;
68854;SDS011;55859;55.710;12.464;2022-08-14T00:57:55;4.88;;;4.57;;
68854;SDS011;55859;55.710;12.464;2022-08-14T01:00:40;5.03;;;4.63;;
68854;SDS011;55859;55.710;12.464;2022-08-14T01:03:07;5.47;;;4.95;;
68854;SDS011;55859;55.710;12.464;2022-08-14T01:05:33;4.78;;;4.38;;
68854;SDS011;55859;55.710;12.464;2022-08-14T01:07:59;5.15;;;4.75;;
68854;SDS011;55859;55.710;12.464;2022-08-14T01:10:26;6.82;;;4.32;;
68854;SDS011;55859;55.710;12.464;2022-08-14T01:13:14;4.97;;;4.57;;
68854;SDS011;55859;55.710;12.464;2022-08-14T01:15:44;5.60;;;4.68;;
68854;SDS011;55859;55.710;12.464;2022-08-14T01:18:12;4.93;;;4.47;;
68854;SDS011;55859;55.710;12.464;2022-08-14T01:20:57;4.68;;;4.20;;
68854;SDS011;55859;55.710;12.464;2022-08-14T01:23:36;4.68;;;4.28;;
68854;SDS011;55859;55.710;12.464;2022-08-14T01:26:28;13.40;;;4.57;;
68854;SDS011;55859;55.710;12.464;2022-08-14T01:28:54;5.15;;;4.55;;
68854;SDS011;55859;55.710;12.464;2022-08-14T01:31:24;4.78;;;4.47;;
68854;SDS011;55859;55.710;12.464;2022-08-14T01:33:55;8.57;;;4.90;;
68854;SDS011;55859;55.710;12.464;2022-08-14T01:36:23;5.18;;;4.78;;
68854;SDS011;55859;55.710;12.464;2022-08-14T01:38:50;4.85;;;4.45;;
68854;SDS011;55859;55.710;12.464;2022-08-14T01:41:18;6.28;;;4.80;;
68854;SDS011;55859;55.710;12.464;2022-08-14T01:46:13;6.53;;;4.75;;
68854;SDS011;55859;55.710;12.464;2022-08-14T01:48:42;5.15;;;4.75;;
68854;SDS011;55859;55.710;12.464;2022-08-14T01:51:09;5.90;;;4.72;;
68854;SDS011;55859;55.710;12.464;2022-08-14T01:53:38;5.63;;;5.22;;
68854;SDS011;55859;55.710;12.464;2022-08-14T01:56:05;9.60;;;5.50;;
68854;SDS011;55859;55.710;12.464;2022-08-14T01:58:31;5.45;;;4.97;;
68854;SDS011;55859;55.710;12.464;2022-08-14T02:00:57;5.45;;;4.95;;
68854;SDS011;55859;55.710;12.464;2022-08-14T02:03:29;6.28;;;5.68;;
68854;SDS011;55859;55.710;12.464;2022-08-14T02:05:58;5.88;;;5.45;;
68854;SDS011;55859;55.710;12.464;2022-08-14T02:08:25;7.85;;;7.15;;
68854;SDS011;55859;55.710;12.464;2022-08-14T02:10:52;5.97;;;5.57;;
68854;SDS011;55859;55.710;12.464;2022-08-14T02:13:38;6.40;;;5.80;;
68854;SDS011;55859;55.710;12.464;2022-08-14T02:16:05;6.63;;;6.10;;
68854;SDS011;55859;55.710;12.464;2022-08-14T02:18:31;6.03;;;5.53;;
68854;SDS011;55859;55.710;12.464;2022-08-14T02:20:57;6.30;;;5.72;;
68854;SDS011;55859;55.710;12.464;2022-08-14T02:23:23;6.32;;;5.75;;
68854;SDS011;55859;55.710;12.464;2022-08-14T02:25:48;5.88;;;5.03;;
68854;SDS011;55859;55.710;12.464;2022-08-14T02:28:14;6.25;;;5.75;;
68854;SDS011;55859;55.710;12.464;2022-08-14T02:30:39;5.90;;;5.40;;
68854;SDS011;55859;55.710;12.464;2022-08-14T02:33:05;6.45;;;5.95;;
68854;SDS011;55859;55.710;12.464;2022-08-14T02:35:31;6.15;;;5.55;;
68854;SDS011;55859;55.710;12.464;2022-08-14T02:37:57;6.00;;;5.18;;
68854;SDS011;55859;55.710;12.464;2022-08-14T02:40:22;5.38;;;4.97;;
68854;SDS011;55859;55.710;12.464;2022-08-14T02:42:48;6.00;;;5.25;;
68854;SDS011;55859;55.710;12.464;2022-08-14T02:45:13;4.93;;;4.55;;
68854;SDS011;55859;55.710;12.464;2022-08-14T02:47:39;5.95;;;5.40;;
68854;SDS011;55859;55.710;12.464;2022-08-14T02:50:04;5.30;;;4.90;;
68854;SDS011;55859;55.710;12.464;2022-08-14T02:52:30;5.15;;;4.85;;
68854;SDS011;55859;55.710;12.464;2022-08-14T02:54:56;7.30;;;5.10;;
68854;SDS011;55859;55.710;12.464;2022-08-14T02:57:22;5.68;;;5.18;;
68854;SDS011;55859;55.710;12.464;2022-08-14T02:59:49;10.90;;;6.55;;
68854;SDS011;55859;55.710;12.464;2022-08-14T03:02:15;8.07;;;7.45;;
68854;SDS011;55859;55.710;12.464;2022-08-14T03:04:41;10.77;;;8.60;;
68854;SDS011;55859;55.710;12.464;2022-08-14T03:07:06;10.38;;;9.45;;
68854;SDS011;55859;55.710;12.464;2022-08-14T03:09:34;10.55;;;8.73;;
68854;SDS011;55859;55.710;12.464;2022-08-14T03:12:00;10.60;;;8.75;;
68854;SDS011;55859;55.710;12.464;2022-08-14T03:14:27;10.23;;;9.30;;
68854;SDS011;55859;55.710;12.464;2022-08-14T03:16:52;9.80;;;8.85;;
68854;SDS011;55859;55.710;12.464;2022-08-14T03:19:18;9.98;;;9.15;;
68854;SDS011;55859;55.710;12.464;2022-08-14T03:21:43;11.80;;;8.25;;
68854;SDS011;55859;55.710;12.464;2022-08-14T03:24:09;10.93;;;8.50;;
68854;SDS011;55859;55.710;12.464;2022-08-14T03:26:38;9.70;;;8.75;;
68854;SDS011;55859;55.710;12.464;2022-08-14T03:29:05;9.57;;;8.55;;
68854;SDS011;55859;55.710;12.464;2022-08-14T03:31:31;10.77;;;8.45;;
68854;SDS011;55859;55.710;12.464;2022-08-14T03:33:57;11.05;;;8.23;;
68854;SDS011;55859;55.710;12.464;2022-08-14T03:36:23;8.80;;;7.80;;
68854;SDS011;55859;55.710;12.464;2022-08-14T03:38:50;18.25;;;8.02;;
68854;SDS011;55859;55.710;12.464;2022-08-14T03:44:00;15.85;;;7.47;;
68854;SDS011;55859;55.710;12.464;2022-08-14T03:46:28;7.65;;;6.68;;
68854;SDS011;55859;55.710;12.464;2022-08-14T03:48:58;7.13;;;6.40;;
68854;SDS011;55859;55.710;12.464;2022-08-14T03:51:26;9.52;;;6.13;;
68854;SDS011;55859;55.710;12.464;2022-08-14T03:53:53;8.15;;;6.55;;
68854;SDS011;55859;55.710;12.464;2022-08-14T03:56:21;6.03;;;5.63;;
68854;SDS011;55859;55.710;12.464;2022-08-14T03:58:51;6.32;;;5.80;;
68854;SDS011;55859;55.710;12.464;2022-08-14T04:01:21;6.32;;;5.70;;
68854;SDS011;55859;55.710;12.464;2022-08-14T04:03:49;11.38;;;5.50;;
68854;SDS011;55859;55.710;12.464;2022-08-14T04:06:16;7.72;;;5.25;;
68854;SDS011;55859;55.710;12.464;2022-08-14T04:08:44;13.05;;;6.05;;
68854;SDS011;55859;55.710;12.464;2022-08-14T04:11:10;9.50;;;5.30;;
68854;SDS011;55859;55.710;12.464;2022-08-14T04:13:37;19.50;;;5.10;;
68854;SDS011;55859;55.710;12.464;2022-08-14T04:16:06;8.70;;;5.53;;
68854;SDS011;55859;55.710;12.464;2022-08-14T04:18:36;9.68;;;5.00;;
68854;SDS011;55859;55.710;12.464;2022-08-14T04:21:03;6.28;;;5.10;;
68854;SDS011;55859;55.710;12.464;2022-08-14T04:23:29;4.68;;;4.28;;
68854;SDS011;55859;55.710;12.464;2022-08-14T04:25:55;5.55;;;4.43;;
68854;SDS011;55859;55.710;12.464;2022-08-14T04:28:21;4.85;;;4.35;;
68854;SDS011;55859;55.710;12.464;2022-08-14T04:30:46;5.90;;;4.50;;
68854;SDS011;55859;55.710;12.464;2022-08-14T04:33:12;4.75;;;4.35;;
68854;SDS011;55859;55.710;12.464;2022-08-14T04:35:38;11.23;;;4.50;;
68854;SDS011;55859;55.710;12.464;2022-08-14T04:38:08;4.07;;;3.78;;
68854;SDS011;55859;55.710;12.464;2022-08-14T04:40:53;4.90;;;4.20;;
68854;SDS011;55859;55.710;12.464;2022-08-14T04:43:39;6.43;;;4.70;;
68854;SDS011;55859;55.710;12.464;2022-08-14T04:46:05;14.80;;;5.20;;
68854;SDS011;55859;55.710;12.464;2022-08-14T04:48:33;16.30;;;5.25;;
68854;SDS011;55859;55.710;12.464;2022-08-14T04:50:58;5.18;;;4.68;;
68854;SDS011;55859;55.710;12.464;2022-08-14T04:53:25;7.20;;;4.45;;
68854;SDS011;55859;55.710;12.464;2022-08-14T04:58:23;11.98;;;5.55;;
68854;SDS011;55859;55.710;12.464;2022-08-14T05:00:50;6.03;;;4.68;;
68854;SDS011;55859;55.710;12.464;2022-08-14T05:03:18;6.55;;;5.03;;
68854;SDS011;55859;55.710;12.464;2022-08-14T05:05:52;6.97;;;4.65;;
68854;SDS011;55859;55.710;12.464;2022-08-14T05:08:19;6.68;;;4.57;;
68854;SDS011;55859;55.710;12.464;2022-08-14T05:10:46;11.02;;;4.68;;
68854;SDS011;55859;55.710;12.464;2022-08-14T05:13:16;5.20;;;4.18;;
68854;SDS011;55859;55.710;12.464;2022-08-14T05:15:42;6.70;;;4.18;;
68854;SDS011;55859;55.710;12.464;2022-08-14T05:18:13;10.23;;;4.05;;
68854;SDS011;55859;55.710;12.464;2022-08-14T05:20:44;7.70;;;3.90;;
68854;SDS011;55859;55.710;12.464;2022-08-14T05:23:12;3.80;;;3.45;;
68854;SDS011;55859;55.710;12.464;2022-08-14T05:25:39;5.05;;;3.38;;
68854;SDS011;55859;55.710;12.464;2022-08-14T05:28:09;4.38;;;3.40;;
68854;SDS011;55859;55.710;12.464;2022-08-14T05:30:37;14.60;;;3.30;;
68854;SDS011;55859;55.710;12.464;2022-08-14T05:33:04;3.80;;;3.35;;
68854;SDS011;55859;55.710;12.464;2022-08-14T05:35:30;5.05;;;3.53;;
68854;SDS011;55859;55.710;12.464;2022-08-14T05:37:56;3.78;;;3.47;;
68854;SDS011;55859;55.710;12.464;2022-08-14T05:40:23;5.40;;;3.47;;
68854;SDS011;55859;55.710;12.464;2022-08-14T05:42:48;3.72;;;3.33;;
68854;SDS011;55859;55.710;12.464;2022-08-14T05:45:14;7.28;;;3.35;;
68854;SDS011;55859;55.710;12.464;2022-08-14T05:47:41;5.03;;;4.05;;
68854;SDS011;55859;55.710;12.464;2022-08-14T05:50:09;3.65;;;3.13;;
68854;SDS011;55859;55.710;12.464;2022-08-14T05:52:36;6.10;;;3.50;;
68854;SDS011;55859;55.710;12.464;2022-08-14T05:55:02;4.73;;;2.73;;
68854;SDS011;55859;55.710;12.464;2022-08-14T05:57:29;3.88;;;2.20;;
68854;SDS011;55859;55.710;12.464;2022-08-14T05:59:54;2.05;;;1.95;;
68854;SDS011;55859;55.710;12.464;2022-08-14T06:02:20;6.13;;;2.00;;
68854;SDS011;55859;55.710;12.464;2022-08-14T06:04:45;6.40;;;2.13;;
68854;SDS011;55859;55.710;12.464;2022-08-14T06:07:12;2.42;;;2.20;;
68854;SDS011;55859;55.710;12.464;2022-08-14T06:09:38;1.60;;;1.50;;
68854;SDS011;55859;55.710;12.464;2022-08-14T06:12:04;1.95;;;1.80;;
68854;SDS011;55859;55.710;12.464;2022-08-14T06:14:30;2.03;;;1.92;;
68854;SDS011;55859;55.710;12.464;2022-08-14T06:16:55;2.50;;;2.00;;
68854;SDS011;55859;55.710;12.464;2022-08-14T06:19:21;10.13;;;2.00;;
68854;SDS011;55859;55.710;12.464;2022-08-14T06:21:46;1.63;;;1.52;;
68854;SDS011;55859;55.710;12.464;2022-08-14T06:24:11;2.87;;;1.70;;
68854;SDS011;55859;55.710;12.464;2022-08-14T06:26:37;3.37;;;1.50;;
68854;SDS011;55859;55.710;12.464;2022-08-14T06:29:02;5.63;;;1.80;;
68854;SDS011;55859;55.710;12.464;2022-08-14T06:31:27;5.03;;;1.52;;
68854;SDS011;55859;55.710;12.464;2022-08-14T06:33:53;10.32;;;1.52;;
68854;SDS011;55859;55.710;12.464;2022-08-14T06:36:18;1.40;;;1.30;;
68854;SDS011;55859;55.710;12.464;2022-08-14T06:38:44;5.63;;;1.77;;
68854;SDS011;55859;55.710;12.464;2022-08-14T06:41:10;1.95;;;1.42;;
68854;SDS011;55859;55.710;12.464;2022-08-14T06:43:35;2.80;;;1.27;;
68854;SDS011;55859;55.710;12.464;2022-08-14T06:46:00;2.70;;;1.40;;
68854;SDS011;55859;55.710;12.464;2022-08-14T06:48:26;9.10;;;1.48;;
68854;SDS011;55859;55.710;12.464;2022-08-14T06:50:53;4.85;;;1.30;;
68854;SDS011;55859;55.710;12.464;2022-08-14T06:53:20;5.88;;;1.25;;
68854;SDS011;55859;55.710;12.464;2022-08-14T06:55:49;6.47;;;1.20;;
68854;SDS011;55859;55.710;12.464;2022-08-14T06:58:16;1.50;;;1.25;;
68854;SDS011;55859;55.710;12.464;2022-08-14T07:00:42;4.25;;;1.38;;
68854;SDS011;55859;55.710;12.464;2022-08-14T07:03:29;6.57;;;1.60;;
68854;SDS011;55859;55.710;12.464;2022-08-14T07:06:13;1.60;;;1.25;;
68854;SDS011;55859;55.710;12.464;2022-08-14T07:08:39;5.30;;;1.23;;
68854;SDS011;55859;55.710;12.464;2022-08-14T07:11:07;1.40;;;1.30;;
68854;SDS011;55859;55.710;12.464;2022-08-14T07:13:33;7.15;;;1.13;;
68854;SDS011;55859;55.710;12.464;2022-08-14T07:15:59;4.63;;;1.40;;
68854;SDS011;55859;55.710;12.464;2022-08-14T07:18:26;6.95;;;1.33;;
68854;SDS011;55859;55.710;12.464;2022-08-14T07:20:57;15.52;;;1.73;;
68854;SDS011;55859;55.710;12.464;2022-08-14T07:23:24;4.95;;;1.80;;
68854;SDS011;55859;55.710;12.464;2022-08-14T07:25:51;2.42;;;1.15;;
68854;SDS011;55859;55.710;12.464;2022-08-14T07:30:52;3.10;;;1.55;;
68854;SDS011;55859;55.710;12.464;2022-08-14T07:33:22;8.20;;;2.45;;
68854;SDS011;55859;55.710;12.464;2022-08-14T07:35:53;4.55;;;1.55;;
68854;SDS011;55859;55.710;12.464;2022-08-14T07:38:20;1.90;;;1.60;;
68854;SDS011;55859;55.710;12.464;2022-08-14T07:40:47;6.45;;;1.30;;
68854;SDS011;55859;55.710;12.464;2022-08-14T07:43:14;4.70;;;1.40;;
68854;SDS011;55859;55.710;12.464;2022-08-14T07:45:40;7.90;;;1.63;;
68854;SDS011;55859;55.710;12.464;2022-08-14T07:48:06;9.02;;;1.17;;
68854;SDS011;55859;55.710;12.464;2022-08-14T07:50:32;10.83;;;1.73;;
68854;SDS011;55859;55.710;12.464;2022-08-14T07:52:58;3.00;;;1.33;;
68854;SDS011;55859;55.710;12.464;2022-08-14T07:55:24;3.17;;;1.02;;
68854;SDS011;55859;55.710;12.464;2022-08-14T07:57:50;4.18;;;1.10;;
68854;SDS011;55859;55.710;12.464;2022-08-14T08:00:19;7.68;;;1.20;;
68854;SDS011;55859;55.710;12.464;2022-08-14T08:02:47;4.03;;;1.38;;
68854;SDS011;55859;55.710;12.464;2022-08-14T08:05:15;12.15;;;1.65;;
68854;SDS011;55859;55.710;12.464;2022-08-14T08:07:41;5.47;;;1.20;;
68854;SDS011;55859;55.710;12.464;2022-08-14T08:10:20;8.50;;;1.30;;
68854;SDS011;55859;55.710;12.464;2022-08-14T08:13:13;4.68;;;1.50;;
68854;SDS011;55859;55.710;12.464;2022-08-14T08:15:41;7.68;;;1.08;;
68854;SDS011;55859;55.710;12.464;2022-08-14T08:18:09;3.63;;;1.30;;
68854;SDS011;55859;55.710;12.464;2022-08-14T08:20:40;4.78;;;1.10;;
68854;SDS011;55859;55.710;12.464;2022-08-14T08:23:06;5.97;;;1.02;;
68854;SDS011;55859;55.710;12.464;2022-08-14T08:25:35;5.68;;;1.40;;
68854;SDS011;55859;55.710;12.464;2022-08-14T08:28:11;4.03;;;0.85;;
68854;SDS011;55859;55.710;12.464;2022-08-14T08:30:40;2.08;;;1.20;;
68854;SDS011;55859;55.710;12.464;2022-08-14T08:33:08;7.90;;;1.10;;
68854;SDS011;55859;55.710;12.464;2022-08-14T08:35:35;3.45;;;1.35;;
68854;SDS011;55859;55.710;12.464;2022-08-14T08:38:13;8.88;;;0.93;;
68854;SDS011;55859;55.710;12.464;2022-08-14T08:40:43;9.10;;;1.55;;
68854;SDS011;55859;55.710;12.464;2022-08-14T08:48:22;4.95;;;1.30;;
68854;SDS011;55859;55.710;12.464;2022-08-14T08:50:53;13.00;;;1.08;;
68854;SDS011;55859;55.710;12.464;2022-08-14T08:53:19;7.60;;;1.10;;
68854;SDS011;55859;55.710;12.464;2022-08-14T08:55:44;5.00;;;1.17;;
68854;SDS011;55859;55.710;12.464;2022-08-14T08:58:16;8.07;;;0.85;;
68854;SDS011;55859;55.710;12.464;2022-08-14T09:00:45;5.60;;;1.30;;
68854;SDS011;55859;55.710;12.464;2022-08-14T09:03:13;10.35;;;1.50;;
68854;SDS011;55859;55.710;12.464;2022-08-14T09:06:02;6.18;;;0.93;;
68854;SDS011;55859;55.710;12.464;2022-08-14T09:08:33;5.65;;;1.23;;
68854;SDS011;55859;55.710;12.464;2022-08-14T09:11:00;3.53;;;0.98;;
68854;SDS011;55859;55.710;12.464;2022-08-14T09:13:28;4.63;;;1.23;;
68854;SDS011;55859;55.710;12.464;2022-08-14T09:15:54;6.18;;;1.63;;
68854;SDS011;55859;55.710;12.464;2022-08-14T09:18:20;11.70;;;1.42;;
68854;SDS011;55859;55.710;12.464;2022-08-14T09:20:48;11.13;;;1.15;;
68854;SDS011;55859;55.710;12.464;2022-08-14T09:23:15;3.28;;;0.95;;
68854;SDS011;55859;55.710;12.464;2022-08-14T09:25:41;4.45;;;0.95;;
68854;SDS011;55859;55.710;12.464;2022-08-14T09:28:09;3.80;;;0.80;;
68854;SDS011;55859;55.710;12.464;2022-08-14T09:30:36;1.67;;;0.90;;
68854;SDS011;55859;55.710;12.464;2022-08-14T09:36:06;6.20;;;1.83;;
68854;SDS011;55859;55.710;12.464;2022-08-14T09:38:53;7.00;;;1.10;;
68854;SDS011;55859;55.710;12.464;2022-08-14T09:44:42;8.77;;;1.60;;
68854;SDS011;55859;55.710;12.464;2022-08-14T09:47:15;7.18;;;1.15;;
68854;SDS011;55859;55.710;12.464;2022-08-14T09:49:41;8.13;;;1.20;;
68854;SDS011;55859;55.710;12.464;2022-08-14T09:52:09;4.38;;;0.77;;
68854;SDS011;55859;55.710;12.464;2022-08-14T09:54:39;1.67;;;0.82;;
68854;SDS011;55859;55.710;12.464;2022-08-14T09:57:05;6.20;;;1.17;;
68854;SDS011;55859;55.710;12.464;2022-08-14T09:59:45;3.35;;;1.08;;
68854;SDS011;55859;55.710;12.464;2022-08-14T10:02:27;7.68;;;1.00;;
68854;SDS011;55859;55.710;12.464;2022-08-14T10:05:05;4.40;;;1.02;;
68854;SDS011;55859;55.710;12.464;2022-08-14T10:07:48;5.10;;;1.02;;
68854;SDS011;55859;55.710;12.464;2022-08-14T10:12:57;2.42;;;1.20;;
68854;SDS011;55859;55.710;12.464;2022-08-14T10:15:25;4.78;;;0.90;;
68854;SDS011;55859;55.710;12.464;2022-08-14T10:18:06;3.97;;;1.25;;
68854;SDS011;55859;55.710;12.464;2022-08-14T10:20:40;4.28;;;1.40;;
68854;SDS011;55859;55.710;12.464;2022-08-14T10:23:09;4.43;;;0.77;;
68854;SDS011;55859;55.710;12.464;2022-08-14T10:25:41;8.32;;;1.00;;
68854;SDS011;55859;55.710;12.464;2022-08-14T10:28:10;3.50;;;1.10;;
68854;SDS011;55859;55.710;12.464;2022-08-14T10:30:41;7.47;;;0.90;;
68854;SDS011;55859;55.710;12.464;2022-08-14T10:33:11;2.22;;;1.00;;
68854;SDS011;55859;55.710;12.464;2022-08-14T10:35:48;11.35;;;1.52;;
68854;SDS011;55859;55.710;12.464;2022-08-14T10:38:13;5.47;;;1.17;;
68854;SDS011;55859;55.710;12.464;2022-08-14T10:40:50;7.25;;;1.00;;
68854;SDS011;55859;55.710;12.464;2022-08-14T10:43:20;4.43;;;1.30;;
68854;SDS011;55859;55.710;12.464;2022-08-14T10:45:59;3.35;;;0.90;;
68854;SDS011;55859;55.710;12.464;2022-08-14T10:48:25;7.72;;;1.10;;
68854;SDS011;55859;55.710;12.464;2022-08-14T10:50:51;4.53;;;0.95;;
68854;SDS011;55859;55.710;12.464;2022-08-14T10:53:33;8.98;;;1.30;;
68854;SDS011;55859;55.710;12.464;2022-08-14T10:56:01;7.65;;;1.40;;
68854;SDS011;55859;55.710;12.464;2022-08-14T10:58:30;10.50;;;1.60;;
68854;SDS011;55859;55.710;12.464;2022-08-14T11:00:57;30.92;;;2.03;;
68854;SDS011;55859;55.710;12.464;2022-08-14T11:03:35;19.63;;;1.67;;
68854;SDS011;55859;55.710;12.464;2022-08-14T11:06:09;1.95;;;1.00;;
68854;SDS011;55859;55.710;12.464;2022-08-14T11:08:42;8.13;;;1.52;;
68854;SDS011;55859;55.710;12.464;2022-08-14T11:11:08;10.05;;;1.08;;
68854;SDS011;55859;55.710;12.464;2022-08-14T11:13:33;3.63;;;0.88;;
68854;SDS011;55859;55.710;12.464;2022-08-14T11:15:59;8.57;;;1.15;;
68854;SDS011;55859;55.710;12.464;2022-08-14T11:18:27;2.63;;;1.00;;
68854;SDS011;55859;55.710;12.464;2022-08-14T11:20:55;3.85;;;0.85;;
68854;SDS011;55859;55.710;12.464;2022-08-14T11:26:03;4.90;;;1.00;;
68854;SDS011;55859;55.710;12.464;2022-08-14T11:28:36;6.15;;;0.82;;
68854;SDS011;55859;55.710;12.464;2022-08-14T11:31:04;7.63;;;0.88;;
68854;SDS011;55859;55.710;12.464;2022-08-14T11:33:32;10.00;;;0.90;;
68854;SDS011;55859;55.710;12.464;2022-08-14T11:36:00;5.00;;;0.95;;
68854;SDS011;55859;55.710;12.464;2022-08-14T11:38:36;6.50;;;0.90;;
68854;SDS011;55859;55.710;12.464;2022-08-14T11:41:03;1.63;;;0.73;;
68854;SDS011;55859;55.710;12.464;2022-08-14T11:43:30;3.50;;;0.70;;
68854;SDS011;55859;55.710;12.464;2022-08-14T11:45:55;5.82;;;0.85;;
68854;SDS011;55859;55.710;12.464;2022-08-14T11:48:22;3.78;;;1.45;;
68854;SDS011;55859;55.710;12.464;2022-08-14T11:50:50;1.30;;;0.70;;
68854;SDS011;55859;55.710;12.464;2022-08-14T11:53:24;7.97;;;0.90;;
68854;SDS011;55859;55.710;12.464;2022-08-14T11:56:01;9.02;;;1.17;;
68854;SDS011;55859;55.710;12.464;2022-08-14T11:58:33;15.27;;;1.20;;
68854;SDS011;55859;55.710;12.464;2022-08-14T12:01:01;6.05;;;1.00;;
68854;SDS011;55859;55.710;12.464;2022-08-14T12:03:43;5.65;;;1.05;;
68854;SDS011;55859;55.710;12.464;2022-08-14T12:06:11;8.27;;;1.00;;
68854;SDS011;55859;55.710;12.464;2022-08-14T12:08:38;2.42;;;0.80;;
68854;SDS011;55859;55.710;12.464;2022-08-14T12:11:05;4.47;;;0.82;;
68854;SDS011;55859;55.710;12.464;2022-08-14T12:13:31;5.68;;;0.77;;
68854;SDS011;55859;55.710;12.464;2022-08-14T12:16:02;2.72;;;1.00;;
68854;SDS011;55859;55.710;12.464;2022-08-14T12:18:33;6.00;;;0.90;;
68854;SDS011;55859;55.710;12.464;2022-08-14T12:21:16;2.00;;;0.80;;
68854;SDS011;55859;55.710;12.464;2022-08-14T12:23:47;3.38;;;0.70;;
68854;SDS011;55859;55.710;12.464;2022-08-14T12:26:28;4.10;;;0.82;;
68854;SDS011;55859;55.710;12.464;2022-08-14T12:29:15;2.70;;;0.60;;
68854;SDS011;55859;55.710;12.464;2022-08-14T12:31:40;14.57;;;1.38;;
68854;SDS011;55859;55.710;12.464;2022-08-14T12:34:07;5.68;;;0.90;;
68854;SDS011;55859;55.710;12.464;2022-08-14T12:36:35;5.80;;;0.70;;
68854;SDS011;55859;55.710;12.464;2022-08-14T12:39:23;7.18;;;1.00;;
68854;SDS011;55859;55.710;12.464;2022-08-14T12:41:54;6.65;;;0.90;;
68854;SDS011;55859;55.710;12.464;2022-08-14T12:44:31;4.35;;;1.23;;
68854;SDS011;55859;55.710;12.464;2022-08-14T12:47:02;2.97;;;0.85;;
68854;SDS011;55859;55.710;12.464;2022-08-14T12:49:31;13.63;;;1.20;;
68854;SDS011;55859;55.710;12.464;2022-08-14T12:51:58;2.20;;;1.02;;
68854;SDS011;55859;55.710;12.464;2022-08-14T12:54:24;10.80;;;1.00;;
68854;SDS011;55859;55.710;12.464;2022-08-14T12:57:00;2.33;;;0.93;;
68854;SDS011;55859;55.710;12.464;2022-08-14T12:59:48;9.27;;;1.38;;
68854;SDS011;55859;55.710;12.464;2022-08-14T13:02:21;1.67;;;0.70;;
68854;SDS011;55859;55.710;12.464;2022-08-14T13:04:48;10.35;;;0.93;;
68854;SDS011;55859;55.710;12.464;2022-08-14T13:07:14;5.18;;;0.95;;
68854;SDS011;55859;55.710;12.464;2022-08-14T13:09:39;3.20;;;1.30;;
68854;SDS011;55859;55.710;12.464;2022-08-14T13:12:05;14.57;;;0.83;;
68854;SDS011;55859;55.710;12.464;2022-08-14T13:14:31;8.85;;;0.95;;
68854;SDS011;55859;55.710;12.464;2022-08-14T13:16:57;2.88;;;1.17;;
68854;SDS011;55859;55.710;12.464;2022-08-14T13:19:24;5.10;;;1.38;;
68854;SDS011;55859;55.710;12.464;2022-08-14T13:21:50;6.43;;;1.17;;
68854;SDS011;55859;55.710;12.464;2022-08-14T13:24:20;2.28;;;1.10;;
68854;SDS011;55859;55.710;12.464;2022-08-14T13:26:50;9.65;;;1.30;;
68854;SDS011;55859;55.710;12.464;2022-08-14T13:29:24;3.08;;;0.93;;
68854;SDS011;55859;55.710;12.464;2022-08-14T13:31:52;2.83;;;1.08;;
68854;SDS011;55859;55.710;12.464;2022-08-14T13:34:22;1.77;;;0.90;;
68854;SDS011;55859;55.710;12.464;2022-08-14T13:36:50;6.32;;;1.00;;
68854;SDS011;55859;55.710;12.464;2022-08-14T13:39:20;1.35;;;1.15;;
68854;SDS011;55859;55.710;12.464;2022-08-14T13:41:47;6.60;;;1.13;;
68854;SDS011;55859;55.710;12.464;2022-08-14T13:44:14;9.15;;;0.90;;
68854;SDS011;55859;55.710;12.464;2022-08-14T13:46:41;4.38;;;1.00;;
68854;SDS011;55859;55.710;12.464;2022-08-14T13:49:08;5.65;;;1.08;;
68854;SDS011;55859;55.710;12.464;2022-08-14T13:51:37;11.00;;;1.23;;
68854;SDS011;55859;55.710;12.464;2022-08-14T13:54:04;4.95;;;1.20;;
68854;SDS011;55859;55.710;12.464;2022-08-14T13:56:30;4.57;;;0.85;;
68854;SDS011;55859;55.710;12.464;2022-08-14T13:58:57;8.15;;;1.08;;
68854;SDS011;55859;55.710;12.464;2022-08-14T14:01:22;4.68;;;1.08;;
68854;SDS011;55859;55.710;12.464;2022-08-14T14:03:51;11.07;;;1.25;;
68854;SDS011;55859;55.710;12.464;2022-08-14T14:06:19;2.55;;;0.90;;
68854;SDS011;55859;55.710;12.464;2022-08-14T14:08:48;2.25;;;1.02;;
68854;SDS011;55859;55.710;12.464;2022-08-14T14:11:17;2.83;;;1.10;;
68854;SDS011;55859;55.710;12.464;2022-08-14T14:13:48;5.85;;;1.00;;
68854;SDS011;55859;55.710;12.464;2022-08-14T14:16:15;8.15;;;1.20;;
68854;SDS011;55859;55.710;12.464;2022-08-14T14:18:43;6.25;;;1.17;;
68854;SDS011;55859;55.710;12.464;2022-08-14T14:21:13;9.35;;;1.20;;
68854;SDS011;55859;55.710;12.464;2022-08-14T14:26:08;4.28;;;1.35;;
68854;SDS011;55859;55.710;12.464;2022-08-14T14:28:36;10.02;;;1.00;;
68854;SDS011;55859;55.710;12.464;2022-08-14T14:31:05;10.35;;;1.60;;
68854;SDS011;55859;55.710;12.464;2022-08-14T14:33:33;4.82;;;1.30;;
68854;SDS011;55859;55.710;12.464;2022-08-14T14:36:00;4.68;;;1.52;;
68854;SDS011;55859;55.710;12.464;2022-08-14T14:38:26;2.63;;;1.05;;
68854;SDS011;55859;55.710;12.464;2022-08-14T14:40:56;2.88;;;1.25;;
68854;SDS011;55859;55.710;12.464;2022-08-14T14:43:22;7.43;;;0.82;;
68854;SDS011;55859;55.710;12.464;2022-08-14T14:45:50;3.10;;;1.15;;
68854;SDS011;55859;55.710;12.464;2022-08-14T14:48:18;12.93;;;1.25;;
68854;SDS011;55859;55.710;12.464;2022-08-14T14:50:45;5.65;;;1.42;;
68854;SDS011;55859;55.710;12.464;2022-08-14T14:53:16;3.60;;;1.08;;
68854;SDS011;55859;55.710;12.464;2022-08-14T14:55:44;10.18;;;1.45;;
68854;SDS011;55859;55.710;12.464;2022-08-14T14:58:10;9.88;;;1.20;;
68854;SDS011;55859;55.710;12.464;2022-08-14T15:00:38;4.95;;;1.13;;
68854;SDS011;55859;55.710;12.464;2022-08-14T15:03:05;2.80;;;0.90;;
68854;SDS011;55859;55.710;12.464;2022-08-14T15:05:31;6.05;;;1.20;;
68854;SDS011;55859;55.710;12.464;2022-08-14T15:07:56;3.33;;;1.20;;
68854;SDS011;55859;55.710;12.464;2022-08-14T15:10:21;8.40;;;1.37;;
68854;SDS011;55859;55.710;12.464;2022-08-14T15:12:47;6.07;;;1.40;;